sensor_id;sensor_type;location;lat;lon;timestamp;temperature;humidity
69679;DHT22;56915;52.046;4.854;2022-08-19T00:02:00;16.70;99.90
69679;DHT22;56915;52.046;4.854;2022-08-19T00:04:30;16.70;99.90
69679;DHT22;56915;52.046;4.854;2022-08-19T00:06:59;16.70;99.90
69679;DHT22;56915;52.046;4.854;2022-08-19T00:09:26;16.70;99.90
69679;DHT22;56915;52.046;4.854;2022-08-19T00:11:54;16.70;99.90
69679;DHT22;56915;52.046;4.854;2022-08-19T00:14:24;16.70;99.90
69679;DHT22;56915;52.046;4.854;2022-08-19T00:16:52;16.60;99.90
69679;DHT22;56915;52.046;4.854;2022-08-19T00:19:21;16.50;99.90
69679;DHT22;56915;52.046;4.854;2022-08-19T00:21:49;16.40;99.90
69679;DHT22;56915;52.046;4.854;2022-08-19T00:24:16;16.40;99.90
69679;DHT22;56915;52.046;4.854;2022-08-19T00:26:44;16.40;99.90
69679;DHT22;56915;52.046;4.854;2022-08-19T00:29:13;16.30;99.90
69679;DHT22;56915;52.046;4.854;2022-08-19T00:31:41;16.30;99.90
69679;DHT22;56915;52.046;4.854;2022-08-19T00:34:10;16.20;99.90
69679;DHT22;56915;52.046;4.854;2022-08-19T00:36:39;16.20;99.90
69679;DHT22;56915;52.046;4.854;2022-08-19T00:39:07;16.10;99.90
69679;DHT22;56915;52.046;4.854;2022-08-19T00:41:34;16.10;99.90
69679;DHT22;56915;52.046;4.854;2022-08-19T00:46:37;16.20;99.90
69679;DHT22;56915;52.046;4.854;2022-08-19T00:49:20;16.20;99.90
69679;DHT22;56915;52.046;4.854;2022-08-19T00:51:54;16.20;99.90
69679;DHT22;56915;52.046;4.854;2022-08-19T00:54:22;16.20;99.90
69679;DHT22;56915;52.046;4.854;2022-08-19T00:56:58;16.20;99.90
69679;DHT22;56915;52.046;4.854;2022-08-19T00:59:27;16.20;99.90
69679;DHT22;56915;52.046;4.854;2022-08-19T01:02:17;16.30;99.90
69679;DHT22;56915;52.046;4.854;2022-08-19T01:04:43;16.20;99.90
69679;DHT22;56915;52.046;4.854;2022-08-19T01:07:10;16.20;99.90
69679;DHT22;56915;52.046;4.854;2022-08-19T01:09:45;16.20;99.90
69679;DHT22;56915;52.046;4.854;2022-08-19T01:12:12;16.20;99.90
69679;DHT22;56915;52.046;4.854;2022-08-19T01:14:40;16.10;99.90
69679;DHT22;56915;52.046;4.854;2022-08-19T01:17:10;16.10;99.90
69679;DHT22;56915;52.046;4.854;2022-08-19T01:19:41;16.10;99.90
69679;DHT22;56915;52.046;4.854;2022-08-19T01:24:58;16.10;99.90
69679;DHT22;56915;52.046;4.854;2022-08-19T01:27:25;16.10;99.90
69679;DHT22;56915;52.046;4.854;2022-08-19T01:29:55;16.10;99.90
69679;DHT22;56915;52.046;4.854;2022-08-19T01:32:23;16.10;99.90
69679;DHT22;56915;52.046;4.854;2022-08-19T01:35:00;16.00;99.90
69679;DHT22;56915;52.046;4.854;2022-08-19T01:37:28;16.00;99.90
69679;DHT22;56915;52.046;4.854;2022-08-19T01:39:57;16.00;99.90
69679;DHT22;56915;52.046;4.854;2022-08-19T01:42:24;15.90;99.90
69679;DHT22;56915;52.046;4.854;2022-08-19T01:44:56;15.90;99.90
69679;DHT22;56915;52.046;4.854;2022-08-19T01:47:23;15.90;99.90
69679;DHT22;56915;52.046;4.854;2022-08-19T01:49:50;15.90;99.90
69679;DHT22;56915;52.046;4.854;2022-08-19T01:52:17;15.90;99.90
69679;DHT22;56915;52.046;4.854;2022-08-19T01:54:44;15.90;99.90
69679;DHT22;56915;52.046;4.854;2022-08-19T01:57:12;15.90;99.90
69679;DHT22;56915;52.046;4.854;2022-08-19T01:59:40;15.80;99.90
69679;DHT22;56915;52.046;4.854;2022-08-19T02:02:08;15.80;99.90
69679;DHT22;56915;52.046;4.854;2022-08-19T02:04:35;15.70;99.90
69679;DHT22;56915;52.046;4.854;2022-08-19T02:07:05;15.70;99.90
69679;DHT22;56915;52.046;4.854;2022-08-19T02:09:32;15.70;99.90
69679;DHT22;56915;52.046;4.854;2022-08-19T02:11:59;15.70;99.90
69679;DHT22;56915;52.046;4.854;2022-08-19T02:14:26;15.70;99.90
69679;DHT22;56915;52.046;4.854;2022-08-19T02:16:52;15.80;99.90
69679;DHT22;56915;52.046;4.854;2022-08-19T02:19:19;15.80;99.90
69679;DHT22;56915;52.046;4.854;2022-08-19T02:21:46;15.80;99.90
69679;DHT22;56915;52.046;4.854;2022-08-19T02:24:13;15.80;99.90
69679;DHT22;56915;52.046;4.854;2022-08-19T02:26:40;15.80;99.90
69679;DHT22;56915;52.046;4.854;2022-08-19T02:29:07;15.80;99.90
69679;DHT22;56915;52.046;4.854;2022-08-19T02:31:34;15.70;99.90
69679;DHT22;56915;52.046;4.854;2022-08-19T02:34:02;15.70;99.90
69679;DHT22;56915;52.046;4.854;2022-08-19T02:36:28;15.70;99.90
69679;DHT22;56915;52.046;4.854;2022-08-19T02:38:56;15.70;99.90
69679;DHT22;56915;52.046;4.854;2022-08-19T02:41:26;15.70;99.90
69679;DHT22;56915;52.046;4.854;2022-08-19T02:43:57;15.70;99.90
69679;DHT22;56915;52.046;4.854;2022-08-19T02:46:48;15.70;99.90
69679;DHT22;56915;52.046;4.854;2022-08-19T02:49:18;15.70;99.90
69679;DHT22;56915;52.046;4.854;2022-08-19T02:51:46;15.70;99.90
69679;DHT22;56915;52.046;4.854;2022-08-19T02:54:14;15.70;99.90
69679;DHT22;56915;52.046;4.854;2022-08-19T02:56:42;15.60;99.90
69679;DHT22;56915;52.046;4.854;2022-08-19T02:59:09;15.60;99.90
69679;DHT22;56915;52.046;4.854;2022-08-19T03:01:39;15.60;99.90
69679;DHT22;56915;52.046;4.854;2022-08-19T03:04:09;15.60;99.90
69679;DHT22;56915;52.046;4.854;2022-08-19T03:06:41;15.60;99.90
69679;DHT22;56915;52.046;4.854;2022-08-19T03:09:08;15.70;99.90
69679;DHT22;56915;52.046;4.854;2022-08-19T03:11:36;15.70;99.90
69679;DHT22;56915;52.046;4.854;2022-08-19T03:14:04;15.70;99.90
69679;DHT22;56915;52.046;4.854;2022-08-19T03:16:34;15.70;99.90
69679;DHT22;56915;52.046;4.854;2022-08-19T03:19:02;15.70;99.90
69679;DHT22;56915;52.046;4.854;2022-08-19T03:21:31;15.70;99.90
69679;DHT22;56915;52.046;4.854;2022-08-19T03:24:01;15.70;99.90
69679;DHT22;56915;52.046;4.854;2022-08-19T03:26:28;15.80;99.90
69679;DHT22;56915;52.046;4.854;2022-08-19T03:28:56;15.70;99.90
69679;DHT22;56915;52.046;4.854;2022-08-19T03:31:26;15.70;99.90
69679;DHT22;56915;52.046;4.854;2022-08-19T03:34:19;15.70;99.90
69679;DHT22;56915;52.046;4.854;2022-08-19T03:36:46;15.70;99.90
69679;DHT22;56915;52.046;4.854;2022-08-19T03:39:14;15.70;99.90
69679;DHT22;56915;52.046;4.854;2022-08-19T03:41:44;15.70;99.90
69679;DHT22;56915;52.046;4.854;2022-08-19T03:44:16;15.60;99.90
69679;DHT22;56915;52.046;4.854;2022-08-19T03:46:54;15.60;99.90
69679;DHT22;56915;52.046;4.854;2022-08-19T03:49:24;15.60;99.90
69679;DHT22;56915;52.046;4.854;2022-08-19T03:51:55;15.60;99.90
69679;DHT22;56915;52.046;4.854;2022-08-19T03:54:24;15.50;99.90
69679;DHT22;56915;52.046;4.854;2022-08-19T03:56:53;15.60;99.90
69679;DHT22;56915;52.046;4.854;2022-08-19T03:59:26;15.50;99.90
69679;DHT22;56915;52.046;4.854;2022-08-19T04:01:59;15.50;99.90
69679;DHT22;56915;52.046;4.854;2022-08-19T04:04:26;15.50;99.90
69679;DHT22;56915;52.046;4.854;2022-08-19T04:06:55;15.40;99.90
69679;DHT22;56915;52.046;4.854;2022-08-19T04:09:22;15.40;99.90
69679;DHT22;56915;52.046;4.854;2022-08-19T04:11:53;15.40;99.90
69679;DHT22;56915;52.046;4.854;2022-08-19T04:14:24;15.40;99.90
69679;DHT22;56915;52.046;4.854;2022-08-19T04:16:58;15.40;99.90
69679;DHT22;56915;52.046;4.854;2022-08-19T04:19:26;15.40;99.90
69679;DHT22;56915;52.046;4.854;2022-08-19T04:21:54;15.50;99.90
69679;DHT22;56915;52.046;4.854;2022-08-19T04:24:22;15.50;99.90
69679;DHT22;56915;52.046;4.854;2022-08-19T04:26:49;15.60;99.90
69679;DHT22;56915;52.046;4.854;2022-08-19T04:29:20;15.70;99.90
69679;DHT22;56915;52.046;4.854;2022-08-19T04:31:49;15.70;99.90
69679;DHT22;56915;52.046;4.854;2022-08-19T04:34:18;15.70;99.90
69679;DHT22;56915;52.046;4.854;2022-08-19T04:36:49;15.70;99.90
69679;DHT22;56915;52.046;4.854;2022-08-19T04:39:20;15.70;99.90
69679;DHT22;56915;52.046;4.854;2022-08-19T04:41:47;15.70;99.90
69679;DHT22;56915;52.046;4.854;2022-08-19T04:44:34;15.70;99.90
69679;DHT22;56915;52.046;4.854;2022-08-19T04:47:11;15.70;99.90
69679;DHT22;56915;52.046;4.854;2022-08-19T04:49:38;15.70;99.90
69679;DHT22;56915;52.046;4.854;2022-08-19T04:52:05;15.70;99.90
69679;DHT22;56915;52.046;4.854;2022-08-19T04:54:32;15.70;99.90
69679;DHT22;56915;52.046;4.854;2022-08-19T04:57:07;15.70;99.90
69679;DHT22;56915;52.046;4.854;2022-08-19T04:59:38;15.70;99.90
69679;DHT22;56915;52.046;4.854;2022-08-19T05:02:07;15.70;99.90
69679;DHT22;56915;52.046;4.854;2022-08-19T05:04:35;15.80;99.90
69679;DHT22;56915;52.046;4.854;2022-08-19T05:07:06;15.80;99.90
69679;DHT22;56915;52.046;4.854;2022-08-19T05:09:34;15.90;99.90
69679;DHT22;56915;52.046;4.854;2022-08-19T05:12:21;15.90;99.90
69679;DHT22;56915;52.046;4.854;2022-08-19T05:14:54;16.20;99.90
69679;DHT22;56915;52.046;4.854;2022-08-19T05:17:24;16.30;99.90
69679;DHT22;56915;52.046;4.854;2022-08-19T05:19:56;16.50;99.90
69679;DHT22;56915;52.046;4.854;2022-08-19T05:22:43;16.70;99.90
69679;DHT22;56915;52.046;4.854;2022-08-19T05:25:15;16.80;99.90
69679;DHT22;56915;52.046;4.854;2022-08-19T05:27:45;16.90;99.90
69679;DHT22;56915;52.046;4.854;2022-08-19T05:30:12;17.00;99.90
69679;DHT22;56915;52.046;4.854;2022-08-19T05:32:42;17.10;99.90
69679;DHT22;56915;52.046;4.854;2022-08-19T05:35:09;17.20;99.90
69679;DHT22;56915;52.046;4.854;2022-08-19T05:37:36;17.30;99.90
69679;DHT22;56915;52.046;4.854;2022-08-19T05:40:04;17.40;99.90
69679;DHT22;56915;52.046;4.854;2022-08-19T05:45:25;17.80;99.90
69679;DHT22;56915;52.046;4.854;2022-08-19T05:47:52;17.90;99.90
69679;DHT22;56915;52.046;4.854;2022-08-19T05:50:21;18.00;99.90
69679;DHT22;56915;52.046;4.854;2022-08-19T05:52:48;18.10;99.90
69679;DHT22;56915;52.046;4.854;2022-08-19T05:55:16;18.20;99.90
69679;DHT22;56915;52.046;4.854;2022-08-19T05:57:43;18.20;99.90
69679;DHT22;56915;52.046;4.854;2022-08-19T06:00:13;18.40;99.90
69679;DHT22;56915;52.046;4.854;2022-08-19T06:02:40;18.50;99.90
69679;DHT22;56915;52.046;4.854;2022-08-19T06:05:08;18.60;99.90
69679;DHT22;56915;52.046;4.854;2022-08-19T06:07:36;18.70;99.90
69679;DHT22;56915;52.046;4.854;2022-08-19T06:10:06;18.80;99.90
69679;DHT22;56915;52.046;4.854;2022-08-19T06:12:34;18.80;99.90
69679;DHT22;56915;52.046;4.854;2022-08-19T06:15:06;18.90;99.90
69679;DHT22;56915;52.046;4.854;2022-08-19T06:17:37;18.90;99.90
69679;DHT22;56915;52.046;4.854;2022-08-19T06:20:06;19.10;99.90
69679;DHT22;56915;52.046;4.854;2022-08-19T06:22:38;19.30;99.90
69679;DHT22;56915;52.046;4.854;2022-08-19T06:25:05;19.50;99.90
69679;DHT22;56915;52.046;4.854;2022-08-19T06:27:32;19.60;99.90
69679;DHT22;56915;52.046;4.854;2022-08-19T06:30:00;19.80;99.90
69679;DHT22;56915;52.046;4.854;2022-08-19T06:32:27;19.90;99.90
69679;DHT22;56915;52.046;4.854;2022-08-19T06:34:54;20.00;99.90
69679;DHT22;56915;52.046;4.854;2022-08-19T06:37:21;20.20;99.90
69679;DHT22;56915;52.046;4.854;2022-08-19T06:39:49;20.30;99.90
69679;DHT22;56915;52.046;4.854;2022-08-19T06:42:17;20.50;99.90
69679;DHT22;56915;52.046;4.854;2022-08-19T06:44:47;20.60;99.90
69679;DHT22;56915;52.046;4.854;2022-08-19T06:47:20;20.60;99.90
69679;DHT22;56915;52.046;4.854;2022-08-19T06:49:55;20.70;99.90
69679;DHT22;56915;52.046;4.854;2022-08-19T06:52:30;20.80;99.90
69679;DHT22;56915;52.046;4.854;2022-08-19T06:55:00;20.90;99.90
69679;DHT22;56915;52.046;4.854;2022-08-19T06:57:32;21.10;99.90
69679;DHT22;56915;52.046;4.854;2022-08-19T06:59:59;21.20;99.90
69679;DHT22;56915;52.046;4.854;2022-08-19T07:02:26;21.20;99.90
69679;DHT22;56915;52.046;4.854;2022-08-19T07:04:53;21.30;99.90
69679;DHT22;56915;52.046;4.854;2022-08-19T07:07:26;21.40;99.90
69679;DHT22;56915;52.046;4.854;2022-08-19T07:09:53;21.60;99.90
69679;DHT22;56915;52.046;4.854;2022-08-19T07:12:27;21.70;99.90
69679;DHT22;56915;52.046;4.854;2022-08-19T07:14:56;22.00;99.90
69679;DHT22;56915;52.046;4.854;2022-08-19T07:17:24;22.10;99.90
69679;DHT22;56915;52.046;4.854;2022-08-19T07:19:51;22.30;99.90
69679;DHT22;56915;52.046;4.854;2022-08-19T07:22:21;22.50;99.90
69679;DHT22;56915;52.046;4.854;2022-08-19T07:24:51;22.60;99.90
69679;DHT22;56915;52.046;4.854;2022-08-19T07:27:18;22.70;99.90
69679;DHT22;56915;52.046;4.854;2022-08-19T07:29:52;22.90;99.90
69679;DHT22;56915;52.046;4.854;2022-08-19T07:32:25;22.90;99.90
69679;DHT22;56915;52.046;4.854;2022-08-19T07:34:54;23.00;99.90
69679;DHT22;56915;52.046;4.854;2022-08-19T07:37:23;23.00;99.90
69679;DHT22;56915;52.046;4.854;2022-08-19T07:40:07;23.00;99.90
69679;DHT22;56915;52.046;4.854;2022-08-19T07:42:34;22.90;99.90
69679;DHT22;56915;52.046;4.854;2022-08-19T07:45:02;22.80;99.90
69679;DHT22;56915;52.046;4.854;2022-08-19T07:47:29;22.90;99.90
69679;DHT22;56915;52.046;4.854;2022-08-19T07:50:17;22.90;99.90
69679;DHT22;56915;52.046;4.854;2022-08-19T07:52:46;22.90;99.90
69679;DHT22;56915;52.046;4.854;2022-08-19T07:55:21;23.00;99.90
69679;DHT22;56915;52.046;4.854;2022-08-19T07:58:10;23.40;99.90
69679;DHT22;56915;52.046;4.854;2022-08-19T08:00:37;23.90;99.90
69679;DHT22;56915;52.046;4.854;2022-08-19T08:03:04;24.10;99.90
69679;DHT22;56915;52.046;4.854;2022-08-19T08:05:31;24.20;99.90
69679;DHT22;56915;52.046;4.854;2022-08-19T08:08:17;24.30;99.90
69679;DHT22;56915;52.046;4.854;2022-08-19T08:11:03;24.50;99.90
69679;DHT22;56915;52.046;4.854;2022-08-19T08:13:34;24.70;99.90
69679;DHT22;56915;52.046;4.854;2022-08-19T08:16:02;24.80;99.90
69679;DHT22;56915;52.046;4.854;2022-08-19T08:18:29;25.00;99.90
69679;DHT22;56915;52.046;4.854;2022-08-19T08:20:57;25.10;99.90
69679;DHT22;56915;52.046;4.854;2022-08-19T08:23:25;25.00;99.90
69679;DHT22;56915;52.046;4.854;2022-08-19T08:25:56;25.10;99.90
69679;DHT22;56915;52.046;4.854;2022-08-19T08:28:24;25.20;99.90
69679;DHT22;56915;52.046;4.854;2022-08-19T08:30:55;25.30;99.90
69679;DHT22;56915;52.046;4.854;2022-08-19T08:33:24;25.30;99.90
69679;DHT22;56915;52.046;4.854;2022-08-19T08:35:58;25.40;99.90
69679;DHT22;56915;52.046;4.854;2022-08-19T08:38:25;25.40;99.90
69679;DHT22;56915;52.046;4.854;2022-08-19T08:41:01;25.40;99.90
69679;DHT22;56915;52.046;4.854;2022-08-19T08:43:35;25.30;99.90
69679;DHT22;56915;52.046;4.854;2022-08-19T08:46:18;25.30;99.90
69679;DHT22;56915;52.046;4.854;2022-08-19T08:51:41;25.40;99.80
69679;DHT22;56915;52.046;4.854;2022-08-19T08:54:12;25.20;95.50
69679;DHT22;56915;52.046;4.854;2022-08-19T08:56:41;25.00;95.10
69679;DHT22;56915;52.046;4.854;2022-08-19T08:59:16;24.80;94.90
69679;DHT22;56915;52.046;4.854;2022-08-19T09:01:45;24.70;93.90
69679;DHT22;56915;52.046;4.854;2022-08-19T09:04:12;24.40;93.70
69679;DHT22;56915;52.046;4.854;2022-08-19T09:10:07;24.50;95.80
69679;DHT22;56915;52.046;4.854;2022-08-19T09:12:49;24.40;94.50
69679;DHT22;56915;52.046;4.854;2022-08-19T09:15:32;24.40;97.00
69679;DHT22;56915;52.046;4.854;2022-08-19T09:18:03;24.50;98.50
69679;DHT22;56915;52.046;4.854;2022-08-19T09:20:32;24.60;96.60
69679;DHT22;56915;52.046;4.854;2022-08-19T09:22:59;24.60;95.60
69679;DHT22;56915;52.046;4.854;2022-08-19T09:25:27;24.50;96.50
69679;DHT22;56915;52.046;4.854;2022-08-19T09:27:55;24.60;97.10
69679;DHT22;56915;52.046;4.854;2022-08-19T09:30:46;24.70;98.40
69679;DHT22;56915;52.046;4.854;2022-08-19T09:33:12;24.80;98.50
69679;DHT22;56915;52.046;4.854;2022-08-19T09:35:39;24.80;97.70
69679;DHT22;56915;52.046;4.854;2022-08-19T09:41:25;24.70;98.60
69679;DHT22;56915;52.046;4.854;2022-08-19T09:43:55;24.70;98.30
69679;DHT22;56915;52.046;4.854;2022-08-19T09:46:28;24.70;98.50
69679;DHT22;56915;52.046;4.854;2022-08-19T09:48:58;24.70;98.40
69679;DHT22;56915;52.046;4.854;2022-08-19T09:51:32;24.60;97.70
69679;DHT22;56915;52.046;4.854;2022-08-19T09:54:02;24.80;99.20
69679;DHT22;56915;52.046;4.854;2022-08-19T09:56:30;24.90;98.40
69679;DHT22;56915;52.046;4.854;2022-08-19T09:58:58;25.10;99.60
69679;DHT22;56915;52.046;4.854;2022-08-19T10:01:27;25.40;99.10
69679;DHT22;56915;52.046;4.854;2022-08-19T10:03:57;25.60;98.30
69679;DHT22;56915;52.046;4.854;2022-08-19T10:06:27;25.70;98.30
69679;DHT22;56915;52.046;4.854;2022-08-19T10:09:14;25.90;97.70
69679;DHT22;56915;52.046;4.854;2022-08-19T10:11:42;26.20;98.30
69679;DHT22;56915;52.046;4.854;2022-08-19T10:14:19;26.50;98.70
69679;DHT22;56915;52.046;4.854;2022-08-19T10:17:21;27.00;98.00
69679;DHT22;56915;52.046;4.854;2022-08-19T10:19:57;27.20;96.50
69679;DHT22;56915;52.046;4.854;2022-08-19T10:22:24;27.30;95.90
69679;DHT22;56915;52.046;4.854;2022-08-19T10:24:52;27.20;94.70
69679;DHT22;56915;52.046;4.854;2022-08-19T10:27:19;26.90;94.30
69679;DHT22;56915;52.046;4.854;2022-08-19T10:29:46;26.70;95.10
69679;DHT22;56915;52.046;4.854;2022-08-19T10:32:14;26.60;95.40
69679;DHT22;56915;52.046;4.854;2022-08-19T10:34:42;26.50;95.70
69679;DHT22;56915;52.046;4.854;2022-08-19T10:37:15;26.50;96.10
69679;DHT22;56915;52.046;4.854;2022-08-19T10:39:50;26.60;96.10
69679;DHT22;56915;52.046;4.854;2022-08-19T10:42:17;26.80;95.60
69679;DHT22;56915;52.046;4.854;2022-08-19T10:44:45;26.70;94.50
69679;DHT22;56915;52.046;4.854;2022-08-19T10:47:13;26.60;94.80
69679;DHT22;56915;52.046;4.854;2022-08-19T10:49:50;26.50;94.60
69679;DHT22;56915;52.046;4.854;2022-08-19T10:52:43;26.30;94.40
69679;DHT22;56915;52.046;4.854;2022-08-19T10:55:21;26.00;94.00
69679;DHT22;56915;52.046;4.854;2022-08-19T10:58:12;25.60;94.00
69679;DHT22;56915;52.046;4.854;2022-08-19T11:00:39;25.20;95.20
69679;DHT22;56915;52.046;4.854;2022-08-19T11:03:07;25.00;96.60
69679;DHT22;56915;52.046;4.854;2022-08-19T11:05:35;25.00;97.50
69679;DHT22;56915;52.046;4.854;2022-08-19T11:08:06;25.20;98.20
69679;DHT22;56915;52.046;4.854;2022-08-19T11:10:53;25.50;99.10
69679;DHT22;56915;52.046;4.854;2022-08-19T11:13:26;25.90;97.00
69679;DHT22;56915;52.046;4.854;2022-08-19T11:16:08;26.30;96.90
69679;DHT22;56915;52.046;4.854;2022-08-19T11:18:37;26.50;94.00
69679;DHT22;56915;52.046;4.854;2022-08-19T11:21:13;26.70;94.90
69679;DHT22;56915;52.046;4.854;2022-08-19T11:23:41;26.90;94.30
69679;DHT22;56915;52.046;4.854;2022-08-19T11:26:08;27.10;94.80
69679;DHT22;56915;52.046;4.854;2022-08-19T11:28:35;27.40;95.10
69679;DHT22;56915;52.046;4.854;2022-08-19T11:31:02;27.50;93.90
69679;DHT22;56915;52.046;4.854;2022-08-19T11:33:31;27.60;92.50
69679;DHT22;56915;52.046;4.854;2022-08-19T11:35:58;27.60;92.40
69679;DHT22;56915;52.046;4.854;2022-08-19T11:38:26;27.70;93.10
69679;DHT22;56915;52.046;4.854;2022-08-19T11:40:58;27.70;92.40
69679;DHT22;56915;52.046;4.854;2022-08-19T11:43:25;27.70;93.30
69679;DHT22;56915;52.046;4.854;2022-08-19T11:45:54;27.80;93.40
69679;DHT22;56915;52.046;4.854;2022-08-19T11:48:22;27.70;92.40
69679;DHT22;56915;52.046;4.854;2022-08-19T11:50:50;27.50;92.20
69679;DHT22;56915;52.046;4.854;2022-08-19T11:53:18;27.30;91.60
69679;DHT22;56915;52.046;4.854;2022-08-19T11:55:50;27.00;90.00
69679;DHT22;56915;52.046;4.854;2022-08-19T11:58:22;26.70;89.30
69679;DHT22;56915;52.046;4.854;2022-08-19T12:00:51;26.50;92.80
69679;DHT22;56915;52.046;4.854;2022-08-19T12:03:18;26.40;93.10
69679;DHT22;56915;52.046;4.854;2022-08-19T12:05:46;26.40;93.70
69679;DHT22;56915;52.046;4.854;2022-08-19T12:08:13;26.30;94.00
69679;DHT22;56915;52.046;4.854;2022-08-19T12:10:40;26.20;93.50
69679;DHT22;56915;52.046;4.854;2022-08-19T12:13:09;26.20;94.00
69679;DHT22;56915;52.046;4.854;2022-08-19T12:15:38;26.20;93.60
69679;DHT22;56915;52.046;4.854;2022-08-19T12:18:08;26.20;92.30
69679;DHT22;56915;52.046;4.854;2022-08-19T12:20:38;26.30;91.40
69679;DHT22;56915;52.046;4.854;2022-08-19T12:23:07;26.40;91.40
69679;DHT22;56915;52.046;4.854;2022-08-19T12:25:43;26.70;92.70
69679;DHT22;56915;52.046;4.854;2022-08-19T12:28:20;27.20;91.20
69679;DHT22;56915;52.046;4.854;2022-08-19T12:30:48;27.90;91.50
69679;DHT22;56915;52.046;4.854;2022-08-19T12:33:17;28.30;90.70
69679;DHT22;56915;52.046;4.854;2022-08-19T12:35:45;28.50;90.00
69679;DHT22;56915;52.046;4.854;2022-08-19T12:38:13;28.30;82.10
69679;DHT22;56915;52.046;4.854;2022-08-19T12:40:41;28.20;80.00
69679;DHT22;56915;52.046;4.854;2022-08-19T12:43:11;28.00;79.20
69679;DHT22;56915;52.046;4.854;2022-08-19T12:45:38;27.70;82.80
69679;DHT22;56915;52.046;4.854;2022-08-19T12:48:06;27.30;80.30
69679;DHT22;56915;52.046;4.854;2022-08-19T12:50:53;26.90;83.70
69679;DHT22;56915;52.046;4.854;2022-08-19T12:53:20;26.60;86.40
69679;DHT22;56915;52.046;4.854;2022-08-19T12:55:47;26.60;88.80
69679;DHT22;56915;52.046;4.854;2022-08-19T12:58:14;26.70;87.80
69679;DHT22;56915;52.046;4.854;2022-08-19T13:00:40;26.80;90.10
69679;DHT22;56915;52.046;4.854;2022-08-19T13:03:08;27.00;89.30
69679;DHT22;56915;52.046;4.854;2022-08-19T13:05:34;27.00;86.90
69679;DHT22;56915;52.046;4.854;2022-08-19T13:08:02;26.90;85.40
69679;DHT22;56915;52.046;4.854;2022-08-19T13:10:33;26.90;90.70
69679;DHT22;56915;52.046;4.854;2022-08-19T13:13:07;27.00;91.80
69679;DHT22;56915;52.046;4.854;2022-08-19T13:15:38;27.10;92.00
69679;DHT22;56915;52.046;4.854;2022-08-19T13:18:08;27.10;91.50
69679;DHT22;56915;52.046;4.854;2022-08-19T13:20:36;27.10;92.30
69679;DHT22;56915;52.046;4.854;2022-08-19T13:23:04;27.10;92.00
69679;DHT22;56915;52.046;4.854;2022-08-19T13:25:30;27.20;92.30
69679;DHT22;56915;52.046;4.854;2022-08-19T13:27:58;27.20;91.90
69679;DHT22;56915;52.046;4.854;2022-08-19T13:30:27;27.00;91.10
69679;DHT22;56915;52.046;4.854;2022-08-19T13:33:12;26.80;91.30
69679;DHT22;56915;52.046;4.854;2022-08-19T13:35:50;26.40;91.80
69679;DHT22;56915;52.046;4.854;2022-08-19T13:38:23;26.00;91.40
69679;DHT22;56915;52.046;4.854;2022-08-19T13:40:52;25.60;92.60
69679;DHT22;56915;52.046;4.854;2022-08-19T13:43:21;25.50;93.60
69679;DHT22;56915;52.046;4.854;2022-08-19T13:45:53;25.40;93.80
69679;DHT22;56915;52.046;4.854;2022-08-19T13:48:24;25.30;93.20
69679;DHT22;56915;52.046;4.854;2022-08-19T13:50:53;25.20;94.00
69679;DHT22;56915;52.046;4.854;2022-08-19T13:53:20;25.10;94.80
69679;DHT22;56915;52.046;4.854;2022-08-19T13:55:47;25.20;95.40
69679;DHT22;56915;52.046;4.854;2022-08-19T13:58:15;25.40;95.70
69679;DHT22;56915;52.046;4.854;2022-08-19T14:00:45;25.60;95.40
69679;DHT22;56915;52.046;4.854;2022-08-19T14:03:12;25.90;94.20
69679;DHT22;56915;52.046;4.854;2022-08-19T14:05:39;26.10;93.60
69679;DHT22;56915;52.046;4.854;2022-08-19T14:08:06;26.20;92.80
69679;DHT22;56915;52.046;4.854;2022-08-19T14:10:33;26.30;92.80
69679;DHT22;56915;52.046;4.854;2022-08-19T14:13:02;26.40;92.50
69679;DHT22;56915;52.046;4.854;2022-08-19T14:15:30;26.60;91.90
69679;DHT22;56915;52.046;4.854;2022-08-19T14:17:57;26.80;92.00
69679;DHT22;56915;52.046;4.854;2022-08-19T14:20:24;27.10;92.40
69679;DHT22;56915;52.046;4.854;2022-08-19T14:22:53;27.40;91.10
69679;DHT22;56915;52.046;4.854;2022-08-19T14:25:27;27.60;90.00
69679;DHT22;56915;52.046;4.854;2022-08-19T14:27:55;27.90;88.30
69679;DHT22;56915;52.046;4.854;2022-08-19T14:30:25;28.00;85.40
69679;DHT22;56915;52.046;4.854;2022-08-19T14:32:58;27.90;83.70
69679;DHT22;56915;52.046;4.854;2022-08-19T14:35:26;27.80;81.80
69679;DHT22;56915;52.046;4.854;2022-08-19T14:37:54;27.50;80.00
69679;DHT22;56915;52.046;4.854;2022-08-19T14:40:23;27.10;80.40
69679;DHT22;56915;52.046;4.854;2022-08-19T14:42:55;26.60;80.30
69679;DHT22;56915;52.046;4.854;2022-08-19T14:45:30;26.20;82.20
69679;DHT22;56915;52.046;4.854;2022-08-19T14:47:57;25.90;84.20
69679;DHT22;56915;52.046;4.854;2022-08-19T14:50:27;25.50;85.50
69679;DHT22;56915;52.046;4.854;2022-08-19T14:52:59;25.10;88.60
69679;DHT22;56915;52.046;4.854;2022-08-19T14:55:26;24.80;90.60
69679;DHT22;56915;52.046;4.854;2022-08-19T14:57:53;24.80;91.20
69679;DHT22;56915;52.046;4.854;2022-08-19T15:00:23;24.80;91.10
69679;DHT22;56915;52.046;4.854;2022-08-19T15:02:50;24.80;90.50
69679;DHT22;56915;52.046;4.854;2022-08-19T15:05:21;24.70;90.70
69679;DHT22;56915;52.046;4.854;2022-08-19T15:07:48;24.60;90.50
69679;DHT22;56915;52.046;4.854;2022-08-19T15:10:15;24.60;90.40
69679;DHT22;56915;52.046;4.854;2022-08-19T15:12:43;24.50;90.30
69679;DHT22;56915;52.046;4.854;2022-08-19T15:15:15;24.30;90.60
69679;DHT22;56915;52.046;4.854;2022-08-19T15:17:45;24.10;91.20
69679;DHT22;56915;52.046;4.854;2022-08-19T15:20:17;24.00;92.10
69679;DHT22;56915;52.046;4.854;2022-08-19T15:22:44;23.90;92.60
69679;DHT22;56915;52.046;4.854;2022-08-19T15:25:14;24.00;94.50
69679;DHT22;56915;52.046;4.854;2022-08-19T15:27:41;24.60;96.10
69679;DHT22;56915;52.046;4.854;2022-08-19T15:30:11;27.00;96.30
69679;DHT22;56915;52.046;4.854;2022-08-19T15:32:38;28.80;83.40
69679;DHT22;56915;52.046;4.854;2022-08-19T15:35:06;29.10;64.60
69679;DHT22;56915;52.046;4.854;2022-08-19T15:37:33;28.90;60.30
69679;DHT22;56915;52.046;4.854;2022-08-19T15:40:04;28.20;60.80
69679;DHT22;56915;52.046;4.854;2022-08-19T15:42:36;27.50;63.50
69679;DHT22;56915;52.046;4.854;2022-08-19T15:45:05;26.90;64.90
69679;DHT22;56915;52.046;4.854;2022-08-19T15:47:32;26.20;65.90
69679;DHT22;56915;52.046;4.854;2022-08-19T15:50:06;25.70;68.60
69679;DHT22;56915;52.046;4.854;2022-08-19T15:52:43;25.30;71.20
69679;DHT22;56915;52.046;4.854;2022-08-19T15:55:16;24.90;75.40
69679;DHT22;56915;52.046;4.854;2022-08-19T15:58:01;24.80;79.70
69679;DHT22;56915;52.046;4.854;2022-08-19T16:01:04;24.90;78.60
69679;DHT22;56915;52.046;4.854;2022-08-19T16:03:54;24.90;76.20
69679;DHT22;56915;52.046;4.854;2022-08-19T16:06:53;24.60;75.40
69679;DHT22;56915;52.046;4.854;2022-08-19T16:09:22;24.20;76.70